Time;durP1;ratioP1;P1;durP2;ratioP2;P2;SDS_P1;SDS_P2;PMS_P1;PMS_P2;Temp;Humidity;BMP_temperature;BMP_pressure;BME280_temperature;BME280_humidity;BME280_pressure;Samples;Min_cycle;Max_cycle;Signal;HPM_P1;HPM_P2
2021/06/04 00:00:25;;;;;;;7.60;6.20;;;20.80;58.30;;;;;;4986000;28;20450;-48
2021/06/04 00:02:52;;;;;;;5.97;5.47;;;20.80;58.40;;;;;;4994748;28;20529;-51
2021/06/04 00:05:24;;;;;;;4.93;4.53;;;20.70;58.40;;;;;;5001966;28;20494;-49
2021/06/04 00:07:50;;;;;;;6.47;5.87;;;20.70;58.50;;;;;;5006899;28;20458;-51
2021/06/04 00:10:24;;;;;;;6.50;5.90;;;20.70;58.80;;;;;;4996155;28;20457;-51
2021/06/04 00:12:51;;;;;;;5.77;5.27;;;20.70;58.80;;;;;;5006981;28;20440;-47
2021/06/04 00:15:21;;;;;;;5.73;5.23;;;20.70;59.40;;;;;;4992099;28;20506;-46
2021/06/04 00:17:50;;;;;;;8.73;5.97;;;20.60;58.70;;;;;;4998065;28;20458;-50
2021/06/04 00:20:23;;;;;;;6.83;4.90;;;20.60;58.90;;;;;;5007792;28;20450;-49
2021/06/04 00:22:50;;;;;;;6.30;5.70;;;20.60;59.10;;;;;;5009028;28;20454;-46
2021/06/04 00:25:17;;;;;;;6.13;5.53;;;20.50;59.00;;;;;;5004594;28;20455;-47
2021/06/04 00:27:44;;;;;;;7.43;6.20;;;20.50;59.10;;;;;;4999442;28;20457;-51
2021/06/04 00:30:12;;;;;;;5.70;5.13;;;20.50;60.00;;;;;;5005119;28;20462;-50
2021/06/04 00:32:38;;;;;;;5.30;4.80;;;20.50;60.20;;;;;;5006244;28;20442;-52
2021/06/04 00:35:09;;;;;;;6.50;5.27;;;20.50;61.30;;;;;;5004286;28;20449;-53
2021/06/04 00:37:35;;;;;;;6.43;5.30;;;20.50;61.10;;;;;;5002000;28;20485;-53
2021/06/04 00:40:02;;;;;;;5.60;5.10;;;20.50;60.70;;;;;;5002010;28;20464;-48
2021/06/04 00:42:33;;;;;;;7.70;5.50;;;20.50;60.60;;;;;;5004196;28;20461;-54
2021/06/04 00:45:00;;;;;;;6.10;5.40;;;20.50;60.10;;;;;;4995887;28;20438;-53
2021/06/04 00:47:27;;;;;;;6.13;5.60;;;20.50;60.10;;;;;;4996000;28;20461;-53
2021/06/04 00:49:54;;;;;;;6.50;5.37;;;20.40;60.40;;;;;;4995574;28;20520;-51
2021/06/04 00:52:26;;;;;;;6.67;5.40;;;20.40;60.40;;;;;;4995978;28;20485;-52
2021/06/04 00:54:55;;;;;;;6.27;5.70;;;20.40;60.60;;;;;;4996236;28;20450;-51
2021/06/04 00:57:23;;;;;;;5.30;4.80;;;20.30;61.10;;;;;;4995981;28;20482;-55
2021/06/04 00:59:49;;;;;;;7.10;5.17;;;20.30;61.00;;;;;;4994378;28;20462;-55
2021/06/04 01:02:19;;;;;;;7.00;5.00;;;20.20;60.80;;;;;;4986464;28;20478;-52
2021/06/04 01:04:47;;;;;;;5.53;5.03;;;20.20;61.00;;;;;;4968948;28;20471;-51
2021/06/04 01:07:17;;;;;;;10.13;5.60;;;20.20;61.50;;;;;;4957306;29;20467;-52
2021/06/04 01:10:00;;;;;;;10.43;5.30;;;20.20;63.10;;;;;;4957062;29;20448;-53
2021/06/04 01:12:51;;;;;;;5.77;5.20;;;20.20;62.00;;;;;;4957066;29;20605;-51
2021/06/04 01:15:32;;;;;;;5.93;5.10;;;20.20;62.00;;;;;;4957120;29;20459;-54
2021/06/04 01:18:06;;;;;;;7.07;5.77;;;20.20;62.00;;;;;;4956760;29;20458;-51
2021/06/04 01:20:35;;;;;;;5.57;5.03;;;20.10;62.80;;;;;;4957074;29;20466;-50
2021/06/04 01:23:39;;;;;;;6.13;5.40;;;20.10;61.50;;;;;;4956801;29;20526;-51
2021/06/04 01:26:09;;;;;;;9.30;6.17;;;20.10;61.30;;;;;;4937308;29;20838;-55
2021/06/04 01:28:39;;;;;;;6.07;5.53;;;20.10;61.90;;;;;;4956878;29;20440;-54
2021/06/04 01:31:11;;;;;;;9.03;6.03;;;20.10;61.90;;;;;;4956931;29;20460;-52
2021/06/04 01:33:43;;;;;;;6.40;5.80;;;20.10;61.70;;;;;;4956550;29;20448;-49
2021/06/04 01:36:10;;;;;;;6.10;5.20;;;20.10;62.50;;;;;;4956494;29;20507;-46
2021/06/04 01:38:41;;;;;;;7.50;5.70;;;20.10;61.80;;;;;;4956528;29;20464;-49
2021/06/04 01:41:13;;;;;;;5.23;4.73;;;20.10;62.40;;;;;;4956691;29;20906;-51
2021/06/04 01:43:43;;;;;;;6.70;5.17;;;20.10;61.60;;;;;;4956721;29;20439;-52
2021/06/04 01:46:13;;;;;;;6.17;5.30;;;20.10;62.00;;;;;;4956543;29;20778;-53
2021/06/04 01:48:43;;;;;;;6.00;5.40;;;20.10;62.90;;;;;;4956971;29;20471;-49
2021/06/04 01:51:19;;;;;;;5.90;5.20;;;20.10;62.00;;;;;;4956525;29;20526;-55
2021/06/04 01:53:49;;;;;;;8.33;6.23;;;20.10;62.00;;;;;;4956457;29;20447;-55
2021/06/04 01:56:20;;;;;;;5.00;4.60;;;20.10;62.10;;;;;;4956425;29;20464;-52
2021/06/04 01:58:50;;;;;;;7.47;5.40;;;20.10;63.60;;;;;;4956456;29;20633;-52
2021/06/04 02:01:20;;;;;;;7.20;5.57;;;20.10;62.90;;;;;;4957679;28;20452;-51
2021/06/04 02:03:46;;;;;;;6.50;5.40;;;20.10;62.40;;;;;;4975746;28;20439;-52
2021/06/04 02:06:13;;;;;;;8.90;6.27;;;20.00;62.40;;;;;;4975781;28;20466;-50
2021/06/04 02:08:43;;;;;;;6.20;5.40;;;20.00;62.80;;;;;;4975391;28;20864;-49
2021/06/04 02:11:10;;;;;;;7.00;5.10;;;20.00;63.00;;;;;;4975503;28;20471;-52
2021/06/04 02:13:41;;;;;;;7.97;6.20;;;20.00;64.20;;;;;;4976084;28;20431;-49
2021/06/04 02:16:31;;;;;;;8.70;5.47;;;20.00;63.70;;;;;;4975462;28;20493;-51
2021/06/04 02:19:06;;;;;;;8.47;5.80;;;19.90;63.30;;;;;;4975777;28;20579;-50
2021/06/04 02:21:35;;;;;;;6.00;5.10;;;19.90;64.30;;;;;;4975484;28;20473;-50
2021/06/04 02:24:07;;;;;;;6.80;5.70;;;19.90;63.80;;;;;;4975458;28;20451;-50
2021/06/04 02:26:39;;;;;;;8.70;5.90;;;19.90;64.00;;;;;;4975744;28;20762;-55
2021/06/04 02:29:12;;;;;;;8.00;6.17;;;19.90;64.20;;;;;;4975689;28;20458;-49
2021/06/04 02:31:44;;;;;;;7.50;5.23;;;19.90;64.60;;;;;;4975450;28;20451;-49
2021/06/04 02:34:18;;;;;;;5.30;4.60;;;19.80;64.50;;;;;;4975522;28;20499;-51
2021/06/04 02:36:48;;;;;;;7.63;6.83;;;19.80;64.40;;;;;;4975264;28;20493;-50
2021/06/04 02:39:17;;;;;;;5.97;5.40;;;19.80;65.10;;;;;;4975268;28;20509;-50
2021/06/04 02:41:46;;;;;;;6.83;5.50;;;19.80;64.90;;;;;;4974967;28;21082;-48
2021/06/04 02:44:19;;;;;;;6.23;5.63;;;19.80;65.10;;;;;;4975057;28;20972;-50
2021/06/04 02:46:48;;;;;;;7.50;6.20;;;19.80;65.30;;;;;;4975195;28;20427;-50
2021/06/04 02:49:16;;;;;;;5.90;5.27;;;19.80;65.40;;;;;;4975073;28;20451;-48
2021/06/04 02:51:54;;;;;;;7.97;5.50;;;19.80;65.50;;;;;;4975180;28;20455;-52
2021/06/04 02:54:25;;;;;;;6.40;5.20;;;19.70;65.80;;;;;;4975163;28;20797;-46
2021/06/04 02:56:54;;;;;;;6.93;6.33;;;19.60;66.30;;;;;;4975045;28;20558;-50
2021/06/04 02:59:24;;;;;;;7.13;6.43;;;19.60;66.40;;;;;;4975294;28;20451;-47
2021/06/04 03:01:54;;;;;;;8.27;5.43;;;19.60;66.30;;;;;;4974531;28;20478;-54
2021/06/04 03:04:21;;;;;;;7.20;5.50;;;19.60;66.60;;;;;;4975093;28;20458;-52
2021/06/04 03:06:52;;;;;;;6.07;5.47;;;19.60;66.80;;;;;;4978534;28;20473;-53
2021/06/04 03:09:21;;;;;;;7.00;6.30;;;19.60;66.60;;;;;;4975346;28;20769;-52
2021/06/04 03:11:48;;;;;;;6.37;5.70;;;19.60;66.80;;;;;;4975147;28;20478;-47
2021/06/04 03:14:17;;;;;;;6.43;5.90;;;19.60;66.70;;;;;;4974985;28;20447;-52
2021/06/04 03:16:46;;;;;;;9.60;6.27;;;19.50;67.00;;;;;;4974822;28;20542;-52
2021/06/04 03:19:14;;;;;;;8.97;5.93;;;19.50;67.60;;;;;;4975161;28;20458;-49
2021/06/04 03:21:43;;;;;;;8.40;6.43;;;19.50;69.20;;;;;;4977903;28;20451;-49
2021/06/04 03:24:12;;;;;;;6.53;5.67;;;19.50;68.10;;;;;;4978844;28;20459;-51
2021/06/04 03:26:39;;;;;;;6.57;5.63;;;19.50;68.40;;;;;;4978669;28;20469;-51
2021/06/04 03:29:08;;;;;;;5.90;5.13;;;19.50;68.20;;;;;;4978631;28;20482;-52
2021/06/04 03:31:37;;;;;;;7.23;6.53;;;19.50;68.40;;;;;;4978337;28;20454;-51
2021/06/04 03:34:05;;;;;;;11.40;6.13;;;19.50;68.20;;;;;;4978761;28;20762;-54
2021/06/04 03:36:35;;;;;;;5.87;5.37;;;19.50;68.60;;;;;;4978616;28;20834;-51
2021/06/04 03:39:03;;;;;;;5.77;5.27;;;19.50;68.90;;;;;;4978277;28;20454;-54
2021/06/04 03:41:33;;;;;;;6.80;6.00;;;19.50;69.40;;;;;;4978407;28;20461;-52
2021/06/04 03:44:00;;;;;;;10.07;6.00;;;19.50;69.40;;;;;;4978621;28;20845;-48
2021/06/04 03:46:26;;;;;;;6.30;5.70;;;19.50;69.70;;;;;;4978475;28;20446;-47
2021/06/04 03:48:54;;;;;;;7.50;6.27;;;19.50;69.50;;;;;;4978094;28;20455;-49
2021/06/04 03:51:25;;;;;;;7.43;6.77;;;19.50;69.70;;;;;;4978384;28;20470;-47
2021/06/04 03:53:52;;;;;;;7.20;5.70;;;19.50;69.90;;;;;;4978423;28;20435;-49
2021/06/04 03:56:19;;;;;;;7.80;7.00;;;19.50;70.20;;;;;;4978114;28;21198;-47
2021/06/04 03:58:46;;;;;;;8.70;6.17;;;19.50;70.80;;;;;;4978637;28;20451;-51
2021/06/04 04:01:15;;;;;;;6.70;6.00;;;19.40;70.60;;;;;;4977941;28;20466;-52
2021/06/04 04:03:43;;;;;;;7.60;6.17;;;19.50;70.90;;;;;;4978019;28;20447;-48
2021/06/04 04:06:09;;;;;;;6.57;5.47;;;19.50;71.00;;;;;;4978407;28;20450;-53
2021/06/04 04:08:37;;;;;;;8.43;6.17;;;19.50;71.70;;;;;;4977473;28;20454;-50
2021/06/04 04:11:04;;;;;;;5.80;5.30;;;19.50;71.80;;;;;;4978116;28;20447;-52
2021/06/04 04:13:30;;;;;;;7.07;6.37;;;19.40;72.50;;;;;;4977875;28;20557;-51
2021/06/04 04:15:58;;;;;;;6.73;5.27;;;19.50;73.50;;;;;;4977694;28;20487;-48
2021/06/04 04:18:25;;;;;;;5.73;4.93;;;19.50;74.80;;;;;;4986331;28;20537;-52
2021/06/04 04:20:53;;;;;;;10.67;5.83;;;19.50;75.00;;;;;;4997033;28;20457;-54
2021/06/04 04:23:23;;;;;;;6.47;5.77;;;19.50;76.40;;;;;;4997310;28;20472;-49
2021/06/04 04:25:50;;;;;;;13.10;6.83;;;19.50;77.80;;;;;;4997320;28;20460;-54
2021/06/04 04:28:20;;;;;;;9.77;6.50;;;19.50;78.10;;;;;;4997296;28;20517;-52
2021/06/04 04:30:46;;;;;;;6.30;5.47;;;19.50;78.90;;;;;;4996802;28;20939;-57
2021/06/04 04:33:13;;;;;;;6.20;5.57;;;19.50;79.10;;;;;;4996725;28;20465;-54
2021/06/04 04:35:41;;;;;;;6.97;6.17;;;19.50;79.00;;;;;;4998142;28;20462;-49
2021/06/04 04:38:09;;;;;;;6.27;5.67;;;19.50;79.50;;;;;;5007023;28;20980;-55
2021/06/04 04:40:37;;;;;;;7.33;5.40;;;19.50;79.60;;;;;;5007933;28;20458;-55
2021/06/04 04:43:07;;;;;;;8.53;5.73;;;19.50;79.30;;;;;;5007477;28;20462;-55
2021/06/04 04:45:34;;;;;;;12.87;6.10;;;19.50;79.70;;;;;;5007258;28;20454;-54
2021/06/04 04:48:01;;;;;;;7.83;5.50;;;19.50;80.40;;;;;;5007549;28;20442;-53
2021/06/04 04:50:30;;;;;;;7.07;6.07;;;19.50;80.20;;;;;;5006843;28;20446;-52
2021/06/04 04:52:57;;;;;;;7.07;5.70;;;19.50;80.80;;;;;;5000661;28;20477;-53
2021/06/04 04:55:25;;;;;;;11.23;6.70;;;19.50;80.40;;;;;;4987067;28;20454;-49
2021/06/04 04:57:51;;;;;;;8.07;5.80;;;19.50;79.90;;;;;;4986559;28;20487;-50
2021/06/04 05:00:23;;;;;;;6.80;6.10;;;19.50;79.80;;;;;;4986202;28;20454;-51
2021/06/04 05:02:50;;;;;;;8.77;6.67;;;19.50;80.70;;;;;;4986177;28;20474;-51
2021/06/04 05:05:17;;;;;;;7.00;5.87;;;19.50;80.40;;;;;;4987751;28;20509;-52
2021/06/04 05:07:44;;;;;;;9.93;6.50;;;19.50;80.70;;;;;;4987031;28;20459;-49
2021/06/04 05:10:12;;;;;;;6.23;5.63;;;19.50;80.00;;;;;;4990019;28;20463;-54
2021/06/04 05:12:38;;;;;;;6.87;5.60;;;19.50;81.00;;;;;;4987312;28;20543;-54
2021/06/04 05:15:09;;;;;;;6.33;5.73;;;19.50;81.00;;;;;;4987739;28;20461;-54
2021/06/04 05:17:36;;;;;;;7.77;6.00;;;19.50;81.50;;;;;;4987436;28;20474;-51
2021/06/04 05:20:04;;;;;;;7.57;6.30;;;19.50;83.70;;;;;;4987702;28;20457;-50
2021/06/04 05:22:30;;;;;;;7.30;6.27;;;19.50;83.00;;;;;;4987585;28;20466;-51
2021/06/04 05:24:57;;;;;;;9.63;6.03;;;19.50;83.90;;;;;;4987853;28;20467;-50
2021/06/04 05:27:23;;;;;;;7.93;6.50;;;19.50;87.30;;;;;;4991911;28;20455;-51
2021/06/04 05:29:49;;;;;;;11.17;6.73;;;19.50;91.60;;;;;;4998676;28;20442;-51
2021/06/04 05:32:17;;;;;;;8.40;7.50;;;19.40;93.70;;;;;;4998591;28;20465;-51
2021/06/04 05:34:45;;;;;;;10.00;7.03;;;19.40;97.80;;;;;;4998175;28;20443;-52
2021/06/04 05:37:11;;;;;;;7.47;6.77;;;19.30;99.70;;;;;;4998492;28;20478;-50
2021/06/04 05:39:37;;;;;;;9.87;7.27;;;19.20;99.90;;;;;;4998726;28;20443;-51
2021/06/04 05:42:05;;;;;;;10.20;6.80;;;19.10;99.90;;;;;;4998385;28;20462;-52
2021/06/04 05:44:35;;;;;;;8.53;7.73;;;19.00;99.90;;;;;;4999308;28;20461;-54
2021/06/04 05:47:10;;;;;;;8.40;7.47;;;18.90;99.90;;;;;;4998701;28;20442;-49
2021/06/04 05:49:37;;;;;;;8.20;6.90;;;18.80;99.90;;;;;;4997933;28;20450;-46
2021/06/04 05:52:09;;;;;;;7.93;7.10;;;18.70;99.90;;;;;;4997759;28;20503;-52
2021/06/04 05:54:36;;;;;;;9.07;8.17;;;18.60;99.90;;;;;;4998324;28;20431;-50
2021/06/04 05:57:04;;;;;;;11.20;8.33;;;18.60;99.90;;;;;;4997709;28;20486;-54
2021/06/04 05:59:30;;;;;;;8.87;7.70;;;18.50;99.90;;;;;;4998174;28;20447;-50
2021/06/04 06:01:56;;;;;;;9.60;8.70;;;18.40;99.90;;;;;;4997879;28;20482;-50
2021/06/04 06:04:22;;;;;;;11.67;7.40;;;18.30;99.90;;;;;;4998058;28;20434;-49
2021/06/04 06:06:51;;;;;;;9.50;8.23;;;18.30;99.90;;;;;;4998011;28;20447;-47
2021/06/04 06:09:20;;;;;;;10.60;7.23;;;18.30;99.90;;;;;;5007529;28;20462;-49
2021/06/04 06:11:46;;;;;;;13.13;8.13;;;18.20;99.90;;;;;;5017153;28;20446;-47
2021/06/04 06:14:15;;;;;;;11.63;7.97;;;18.20;99.90;;;;;;5016968;28;20441;-49
2021/06/04 06:16:42;;;;;;;9.70;8.03;;;18.10;99.90;;;;;;5016910;28;20501;-47
2021/06/04 06:19:14;;;;;;;9.17;7.97;;;18.10;99.90;;;;;;5016964;28;20454;-52
2021/06/04 06:21:42;;;;;;;11.67;7.67;;;18.10;99.90;;;;;;5016718;28;20436;-49
2021/06/04 06:24:09;;;;;;;11.50;8.33;;;18.00;99.90;;;;;;5017057;28;20454;-48
2021/06/04 06:26:37;;;;;;;11.93;7.87;;;18.00;99.90;;;;;;5016890;28;20438;-51
2021/06/04 06:29:06;;;;;;;11.40;8.10;;;18.00;99.90;;;;;;5017136;28;20463;-46
2021/06/04 06:31:34;;;;;;;10.20;7.30;;;18.10;99.90;;;;;;5017250;28;20445;-49
2021/06/04 06:34:01;;;;;;;10.70;8.00;;;18.10;99.90;;;;;;5016485;28;20441;-49
2021/06/04 06:36:32;;;;;;;8.60;7.50;;;18.10;99.90;;;;;;5016995;28;20469;-47
2021/06/04 06:39:00;;;;;;;12.37;8.43;;;18.10;99.90;;;;;;5016370;28;20434;-52
2021/06/04 06:41:28;;;;;;;9.77;7.80;;;18.10;99.90;;;;;;5016895;28;20479;-50
2021/06/04 06:43:56;;;;;;;8.70;7.40;;;18.20;99.90;;;;;;5007081;28;20446;-51
2021/06/04 06:46:26;;;;;;;10.70;8.27;;;18.30;99.90;;;;;;4994922;28;20442;-50
2021/06/04 06:48:52;;;;;;;7.43;6.83;;;18.30;99.90;;;;;;4995424;28;20457;-48
2021/06/04 06:51:19;;;;;;;9.13;6.80;;;18.30;99.90;;;;;;4995182;28;20553;-48
2021/06/04 06:53:46;;;;;;;8.57;7.20;;;18.40;99.90;;;;;;4995479;28;20463;-49
2021/06/04 06:56:16;;;;;;;13.27;7.40;;;18.50;99.90;;;;;;4999083;28;20490;-53
2021/06/04 06:58:42;;;;;;;14.17;7.33;;;18.60;99.90;;;;;;4998798;28;20474;-53
2021/06/04 07:01:10;;;;;;;9.30;7.57;;;18.70;99.90;;;;;;5003645;28;20533;-50
2021/06/04 07:03:39;;;;;;;9.70;8.80;;;18.70;99.90;;;;;;5020200;28;20445;-53
2021/06/04 07:06:08;;;;;;;12.53;8.97;;;18.80;99.90;;;;;;5018388;28;20456;-50
2021/06/04 07:08:35;;;;;;;10.73;8.40;;;18.80;99.90;;;;;;5018534;28;20472;-50
2021/06/04 07:11:02;;;;;;;11.20;10.00;;;18.80;99.90;;;;;;5018658;28;20524;-54
2021/06/04 07:13:29;;;;;;;12.97;8.83;;;18.90;99.90;;;;;;5014624;28;20489;-54
2021/06/04 07:15:57;;;;;;;10.77;7.43;;;19.00;99.90;;;;;;4998326;28;20921;-52
2021/06/04 07:18:25;;;;;;;11.00;9.40;;;19.10;99.90;;;;;;4996663;28;20454;-54
2021/06/04 07:20:51;;;;;;;11.73;8.17;;;19.20;99.90;;;;;;5002131;28;20442;-47
2021/06/04 07:23:18;;;;;;;8.77;7.30;;;19.30;99.90;;;;;;5003884;28;20469;-49
2021/06/04 07:25:46;;;;;;;9.27;8.20;;;19.30;99.90;;;;;;4992807;28;20785;-52
2021/06/04 07:28:16;;;;;;;9.33;7.40;;;19.40;99.90;;;;;;4985314;28;20454;-53
2021/06/04 07:30:46;;;;;;;13.47;8.40;;;19.40;99.90;;;;;;4989274;28;20468;-51
2021/06/04 07:33:20;;;;;;;9.77;8.50;;;19.40;99.90;;;;;;4978007;28;20462;-50
2021/06/04 07:35:49;;;;;;;11.70;8.47;;;19.40;99.90;;;;;;4986350;28;20449;-51
2021/06/04 07:38:15;;;;;;;9.83;7.97;;;19.40;99.90;;;;;;4978914;28;20501;-49
2021/06/04 07:40:42;;;;;;;12.93;8.03;;;19.50;99.90;;;;;;4993410;28;20445;-50
2021/06/04 07:43:11;;;;;;;10.53;8.00;;;19.50;99.90;;;;;;4995753;28;20810;-50
2021/06/04 07:45:41;;;;;;;9.87;7.63;;;19.50;99.90;;;;;;4991535;28;20518;-50
2021/06/04 07:48:12;;;;;;;9.47;8.30;;;19.50;99.90;;;;;;4988388;28;20950;-50
2021/06/04 07:50:40;;;;;;;12.10;8.00;;;19.50;99.90;;;;;;4990995;28;20482;-49
2021/06/04 07:53:08;;;;;;;9.50;8.60;;;19.60;99.90;;;;;;4987040;28;20442;-49
2021/06/04 07:55:35;;;;;;;11.37;8.63;;;19.70;99.90;;;;;;4990511;28;20797;-52
2021/06/04 07:58:01;;;;;;;12.30;8.00;;;19.70;99.90;;;;;;4992961;28;20583;-50
2021/06/04 08:00:29;;;;;;;10.27;8.30;;;19.70;99.90;;;;;;4995941;28;20451;-48
2021/06/04 08:02:56;;;;;;;9.40;8.10;;;19.70;99.90;;;;;;4992556;28;20474;-50
2021/06/04 08:05:23;;;;;;;8.43;7.50;;;19.70;99.90;;;;;;4988565;28;20508;-51
2021/06/04 08:07:49;;;;;;;7.70;7.00;;;19.70;99.90;;;;;;4995881;28;20469;-53
2021/06/04 08:10:18;;;;;;;11.03;8.20;;;19.70;99.90;;;;;;4992258;28;20457;-54
2021/06/04 08:12:44;;;;;;;9.47;7.57;;;19.80;99.90;;;;;;4987192;28;20462;-52
2021/06/04 08:15:13;;;;;;;13.67;7.50;;;19.70;99.90;;;;;;4986185;28;20477;-53
2021/06/04 08:17:41;;;;;;;8.40;7.50;;;19.80;99.90;;;;;;4982770;28;20477;-49
2021/06/04 08:20:11;;;;;;;8.97;7.17;;;19.90;99.90;;;;;;4993945;28;20466;-52
2021/06/04 08:22:40;;;;;;;8.93;8.00;;;19.90;99.90;;;;;;4993204;28;20924;-51
2021/06/04 08:25:07;;;;;;;12.50;7.63;;;20.00;99.90;;;;;;4990026;28;20554;-54
2021/06/04 08:27:34;;;;;;;9.57;8.67;;;20.00;99.90;;;;;;4992816;28;20468;-52
2021/06/04 08:30:01;;;;;;;9.80;8.80;;;20.00;99.90;;;;;;4988639;28;20450;-50
2021/06/04 08:32:27;;;;;;;8.33;7.53;;;20.10;99.90;;;;;;4985918;28;20480;-56
2021/06/04 08:34:56;;;;;;;13.40;8.37;;;20.30;99.90;;;;;;4983841;28;20458;-51
2021/06/04 08:37:22;;;;;;;8.90;8.00;;;20.30;99.90;;;;;;4986607;28;20537;-54
2021/06/04 08:39:49;;;;;;;9.13;8.23;;;20.30;99.90;;;;;;4989697;28;20451;-52
2021/06/04 08:42:29;;;;;;;13.80;8.20;;;20.40;99.90;;;;;;4994548;28;20520;-54
2021/06/04 08:45:13;;;;;;;10.30;7.57;;;20.40;99.90;;;;;;4985862;28;20455;-51
2021/06/04 08:47:43;;;;;;;10.13;8.13;;;20.50;99.90;;;;;;4995797;28;20500;-50
2021/06/04 08:50:22;;;;;;;9.67;8.07;;;20.50;99.90;;;;;;4994352;28;20521;-55
2021/06/04 08:52:55;;;;;;;12.17;8.27;;;20.60;99.90;;;;;;4994411;28;20913;-50
2021/06/04 08:55:29;;;;;;;9.30;8.40;;;20.70;99.90;;;;;;4989433;28;20443;-50
2021/06/04 08:58:07;;;;;;;14.83;8.43;;;20.80;99.90;;;;;;4988436;28;20880;-57
2021/06/04 09:00:38;;;;;;;12.80;7.70;;;20.80;99.90;;;;;;4989048;28;20500;-53
2021/06/04 09:03:08;;;;;;;8.60;7.73;;;20.70;99.90;;;;;;4981260;28;20489;-52
2021/06/04 09:05:40;;;;;;;8.07;7.10;;;20.70;99.90;;;;;;4981120;28;20454;-52
2021/06/04 09:08:11;;;;;;;14.60;8.90;;;20.50;99.90;;;;;;4972856;28;20442;-47
2021/06/04 09:10:49;;;;;;;12.10;7.47;;;20.50;99.90;;;;;;4981333;28;20447;-50
2021/06/04 09:13:17;;;;;;;8.60;7.80;;;20.40;99.90;;;;;;4990362;28;20770;-49
2021/06/04 09:15:46;;;;;;;10.53;8.07;;;20.40;99.90;;;;;;4987907;28;20450;-50
2021/06/04 09:18:16;;;;;;;9.17;7.73;;;20.40;99.90;;;;;;4989276;28;20477;-50
2021/06/04 09:20:48;;;;;;;9.53;7.43;;;20.40;99.90;;;;;;4982526;28;20767;-50
2021/06/04 09:23:18;;;;;;;9.47;8.10;;;20.40;99.90;;;;;;4978320;28;20442;-53
2021/06/04 09:25:44;;;;;;;10.10;7.67;;;20.50;99.90;;;;;;4985431;28;20463;-53
2021/06/04 09:28:26;;;;;;;9.80;7.93;;;20.50;99.90;;;;;;4980986;28;20443;-52
2021/06/04 09:30:55;;;;;;;11.10;8.77;;;20.60;99.90;;;;;;4984203;28;20443;-48
2021/06/04 09:33:31;;;;;;;11.20;7.53;;;20.60;99.90;;;;;;4988273;28;20465;-48
2021/06/04 09:36:02;;;;;;;10.03;9.03;;;20.60;99.90;;;;;;4990472;28;20528;-51
2021/06/04 09:38:33;;;;;;;10.50;8.07;;;20.60;99.90;;;;;;4981835;28;20582;-50
2021/06/04 09:41:24;;;;;;;15.97;8.00;;;20.60;99.90;;;;;;4984001;28;20477;-52
2021/06/04 09:44:05;;;;;;;14.53;9.43;;;20.80;99.90;;;;;;4980379;28;20443;-51
2021/06/04 09:46:39;;;;;;;12.00;8.63;;;20.80;99.90;;;;;;4979249;28;20539;-50
2021/06/04 09:49:06;;;;;;;9.67;8.17;;;20.80;99.90;;;;;;4989715;28;20457;-50
2021/06/04 09:51:34;;;;;;;16.03;8.13;;;20.80;99.90;;;;;;4985057;28;20451;-52
2021/06/04 09:54:19;;;;;;;11.50;8.40;;;20.80;99.90;;;;;;4983516;28;20445;-53
2021/06/04 09:56:46;;;;;;;10.20;8.03;;;20.80;99.90;;;;;;4975277;28;20481;-49
2021/06/04 09:59:14;;;;;;;9.30;8.30;;;20.90;99.90;;;;;;4983847;28;20454;-49
2021/06/04 10:01:46;;;;;;;19.53;8.27;;;21.00;99.90;;;;;;4977900;28;20494;-47
2021/06/04 10:04:16;;;;;;;11.40;9.10;;;21.10;99.90;;;;;;4979559;28;20966;-49
2021/06/04 10:06:45;;;;;;;10.90;8.20;;;21.20;99.90;;;;;;4979819;28;21286;-49
2021/06/04 10:09:25;;;;;;;8.67;7.80;;;21.30;99.90;;;;;;4995105;28;20505;-48
2021/06/04 10:12:02;;;;;;;9.40;7.40;;;21.40;99.90;;;;;;4987898;28;20442;-54
2021/06/04 10:14:43;;;;;;;9.90;7.60;;;21.50;99.90;;;;;;4979647;28;21063;-49
2021/06/04 10:17:39;;;;;;;9.27;8.10;;;21.60;99.90;;;;;;4990162;28;20835;-54
2021/06/04 10:20:40;;;;;;;12.30;7.80;;;21.60;99.90;;;;;;4980670;28;20442;-50
2021/06/04 10:23:18;;;;;;;10.30;8.43;;;21.60;99.90;;;;;;4890969;29;20462;-58
2021/06/04 10:25:49;;;;;;;36.33;25.93;;;21.70;99.90;;;;;;4979819;28;20461;-54
2021/06/04 10:28:37;;;;;;;14.07;10.20;;;21.80;99.90;;;;;;4981021;28;20431;-54
2021/06/04 10:31:23;;;;;;;13.73;9.80;;;21.90;99.90;;;;;;4980831;28;20446;-53
2021/06/04 10:34:01;;;;;;;19.27;11.07;;;22.00;99.90;;;;;;4971344;28;21182;-54
2021/06/04 10:36:32;;;;;;;8.30;7.50;;;22.20;99.90;;;;;;4978970;28;20442;-52
2021/06/04 10:39:03;;;;;;;8.20;6.80;;;22.30;99.90;;;;;;4985249;28;20454;-52
2021/06/04 10:41:42;;;;;;;8.90;8.00;;;22.50;99.90;;;;;;4981988;28;20466;-47
2021/06/04 10:44:15;;;;;;;11.40;7.90;;;22.70;99.90;;;;;;4987096;28;20463;-51
2021/06/04 10:46:46;;;;;;;9.83;6.90;;;22.90;99.90;;;;;;4991390;28;20446;-52
2021/06/04 10:49:30;;;;;;;9.63;7.63;;;23.00;99.90;;;;;;4989039;28;20817;-48
2021/06/04 10:51:59;;;;;;;11.17;7.60;;;23.00;99.90;;;;;;4979814;28;20478;-54
2021/06/04 10:54:35;;;;;;;8.10;6.80;;;23.10;99.90;;;;;;4986640;28;20449;-52
2021/06/04 10:57:07;;;;;;;7.30;6.00;;;23.10;99.90;;;;;;4988541;28;20514;-51
2021/06/04 10:59:50;;;;;;;11.50;6.00;;;23.10;99.90;;;;;;4987065;28;20771;-51
2021/06/04 11:02:24;;;;;;;6.93;6.23;;;23.10;99.90;;;;;;4970874;28;21271;-48
2021/06/04 11:05:01;;;;;;;8.20;6.10;;;23.20;99.90;;;;;;4974478;28;20447;-48
2021/06/04 11:07:32;;;;;;;7.90;6.53;;;23.30;99.90;;;;;;4990289;28;20935;-48
2021/06/04 11:10:07;;;;;;;7.10;5.80;;;23.50;99.90;;;;;;4983672;28;20447;-46
2021/06/04 11:12:53;;;;;;;8.30;6.80;;;23.70;99.90;;;;;;4983345;28;20442;-49
2021/06/04 11:15:26;;;;;;;10.17;6.30;;;24.00;99.90;;;;;;4991442;28;20952;-48
2021/06/04 11:17:58;;;;;;;6.57;5.87;;;24.20;99.90;;;;;;4987248;28;20968;-48
2021/06/04 11:20:35;;;;;;;6.37;5.70;;;24.50;99.90;;;;;;4985779;28;20454;-50
2021/06/04 11:23:09;;;;;;;16.13;6.10;;;24.50;99.90;;;;;;4989709;28;20541;-47
2021/06/04 11:25:45;;;;;;;8.10;5.90;;;24.50;99.90;;;;;;4987143;28;20933;-49
2021/06/04 11:28:37;;;;;;;5.60;4.70;;;24.80;99.30;;;;;;4980885;28;20469;-49
2021/06/04 11:31:08;;;;;;;6.07;4.97;;;25.20;98.90;;;;;;4987569;28;20454;-51
2021/06/04 11:33:38;;;;;;;9.23;6.20;;;25.80;96.90;;;;;;4978369;28;20590;-50
2021/06/04 11:36:19;;;;;;;6.67;6.03;;;26.30;94.30;;;;;;4991089;28;20465;-51
2021/06/04 11:38:49;;;;;;;8.63;6.80;;;26.40;92.30;;;;;;4986324;28;20485;-47
2021/06/04 11:41:20;;;;;;;7.63;6.93;;;26.40;91.60;;;;;;4980301;28;20458;-49
2021/06/04 11:43:50;;;;;;;7.70;7.00;;;26.30;91.40;;;;;;4987068;28;20455;-49
2021/06/04 11:46:24;;;;;;;10.90;7.33;;;26.10;91.40;;;;;;4978796;28;20446;-49
2021/06/04 11:49:07;;;;;;;7.60;6.87;;;26.00;91.70;;;;;;4994908;28;20453;-47
2021/06/04 11:51:37;;;;;;;7.67;6.87;;;25.90;91.50;;;;;;4986008;28;20462;-47
2021/06/04 11:54:31;;;;;;;8.23;7.53;;;25.90;91.30;;;;;;4996609;28;20511;-45
2021/06/04 11:57:00;;;;;;;11.27;6.07;;;26.00;91.90;;;;;;4990427;28;20486;-48
2021/06/04 11:59:49;;;;;;;12.67;8.07;;;25.70;91.10;;;;;;4990578;28;20786;-47
2021/06/04 12:02:34;;;;;;;11.90;7.87;;;25.40;91.20;;;;;;4999738;28;20969;-45
2021/06/04 12:05:30;;;;;;;17.10;7.40;;;25.10;91.90;;;;;;4988012;28;20457;-48
2021/06/04 12:08:44;;;;;;;9.30;8.40;;;25.00;92.20;;;;;;4989915;28;20465;-48
2021/06/04 12:11:36;;;;;;;9.37;8.47;;;24.80;91.90;;;;;;4911302;29;20912;-48
2021/06/04 12:14:18;;;;;;;7.10;6.10;;;24.70;92.30;;;;;;4990078;28;20455;-48
2021/06/04 12:16:46;;;;;;;9.10;7.17;;;24.70;92.70;;;;;;4991568;28;20873;-51
2021/06/04 12:19:35;;;;;;;9.90;7.10;;;24.90;92.80;;;;;;4981582;28;20771;-48
2021/06/04 12:22:07;;;;;;;8.87;7.97;;;25.00;92.30;;;;;;4982045;28;20450;-45
2021/06/04 12:24:53;;;;;;;8.50;7.60;;;25.10;93.20;;;;;;4985240;28;20458;-46
2021/06/04 12:27:56;;;;;;;6.83;6.23;;;25.20;92.20;;;;;;4978287;28;20939;-47
2021/06/04 12:30:48;;;;;;;7.63;6.83;;;25.50;91.50;;;;;;4984955;28;20758;-44
2021/06/04 12:33:47;;;;;;;10.37;6.83;;;25.90;91.10;;;;;;4989547;28;20450;-47
2021/06/04 12:36:50;;;;;;;7.97;7.00;;;26.20;91.30;;;;;;4977474;28;20526;-49
2021/06/04 12:39:46;;;;;;;8.13;7.33;;;26.50;88.00;;;;;;4982059;28;20497;-46
2021/06/04 12:42:36;;;;;;;15.50;7.00;;;26.80;88.30;;;;;;4924022;29;20938;-45
2021/06/04 12:45:28;;;;;;;9.13;7.47;;;26.70;84.70;;;;;;4918737;29;20484;-50
2021/06/04 12:48:02;;;;;;;7.17;6.47;;;26.80;84.40;;;;;;4923363;29;20463;-49
2021/06/04 12:50:32;;;;;;;8.63;7.80;;;26.80;83.40;;;;;;4929929;29;20452;-49
2021/06/04 12:53:24;;;;;;;10.80;7.93;;;26.80;84.30;;;;;;4923691;29;20450;-48
2021/06/04 12:55:52;;;;;;;8.03;7.23;;;26.60;84.30;;;;;;4925068;29;20434;-48
2021/06/04 12:58:28;;;;;;;10.00;7.30;;;26.50;83.60;;;;;;4929686;29;20484;-52
2021/06/04 13:01:12;;;;;;;9.23;7.03;;;26.40;85.50;;;;;;4928952;29;20456;-49
2021/06/04 13:03:43;;;;;;;9.53;8.63;;;26.30;86.80;;;;;;4906052;29;20442;-46
2021/06/04 13:06:15;;;;;;;8.80;7.30;;;26.20;85.40;;;;;;4912211;29;20476;-49